Mariner Of The Seas — C6FV9 — position and weather

sailwx.info

Track history (hours):
 
Tides and Currents Weather Stations Pressure Air Temp Water Temp Dewpoint Dewpoint Depression Visibility Wind Speed Wind Dir Waves Ship Positions

Mariner Of The Seas

Operator: Royal Caribbean Cruises Ltd

Last reported at 2015-Feb-27 16:08 UTC. Time now 2015-Mar-02 16:26 UTC.
Position N 01°52' E 102°27'.

Type: Passenger vessel. MMSI: 311493000.

Date/timePositionNaut miles runAvg speedWind from/ knotsBaromVisibWave heightAir tempDewpointWater temp
2015-Feb-27 16:08N 01°52' E 102°27'1614.9
2015-Feb-27 15:06N 01°45' E 102°40'7914.2
2015-Feb-27 09:33N 01°13' E 103°52'3 2.9
2015-Feb-27 08:27N 01°16' E 103°52'0 0.1
2015-Feb-27 07:27N 01°16' E 103°52'1 0.1
2015-Feb-26 23:19N 01°15' E 103°52'5 6.9
2015-Feb-26 22:31N 01°10' E 103°49'8513.2
2015-Feb-26 16:05N 01°44' E 102°31'814.6
2015-Feb-26 15:33N 01°48' E 102°24'  
2015-Feb-22 10:05N 01°10' E 103°47'611.2
2015-Feb-22 09:31N 01°14' E 103°52'2 0.5
2015-Feb-22 05:04N 01°16' E 103°52'0 0.0
2015-Feb-22 01:25N 01°16' E 103°52'0 0.0
2015-Feb-21 23:32N 01°16' E 103°52'8 7.7
2015-Feb-21 22:33N 01°10' E 103°47'6214.1
2015-Feb-21 18:06N 01°36' E 102°51'1615.6
2015-Feb-21 17:04N 01°42' E 102°36'815.7
2015-Feb-21 16:34N 01°46' E 102°29'  
2015-Feb-18 10:26N 01°13' E 103°52'3 2.4
2015-Feb-18 09:06N 01°16' E 103°52'0 0.0
2015-Feb-18 04:30N 01°16' E 103°52'0 0.0
2015-Feb-18 03:29N 01°16' E 103°52'0 0.0
2015-Feb-18 02:18N 01°16' E 103°52'0 0.0
2015-Feb-18 01:15N 01°16' E 103°52'0 0.0
2015-Feb-18 00:30N 01°16' E 103°52'1 0.6
2015-Feb-17 23:34N 01°15' E 103°52'9 8.5
2015-Feb-17 22:33N 01°16' E 104°00'  
Track history (hours):
 
Tides and Currents Weather Stations Pressure Air Temp Water Temp Dewpoint Dewpoint Depression Visibility Wind Speed Wind Dir Waves Ship Positions

Mariner Of The Seas

Operator: Royal Caribbean Cruises Ltd

Last reported at 2015-Feb-27 16:08 UTC. Time now 2015-Mar-02 16:26 UTC.
Position N 01°52' E 102°27'.

Type: Passenger vessel. MMSI: 311493000.

Date/timePositionNaut miles runAvg speedWind from/ knotsBaromVisibWave heightAir tempDewpointWater temp
2015-Feb-27 16:08N 01°52' E 102°27'1614.9
2015-Feb-27 15:06N 01°45' E 102°40'7914.2
2015-Feb-27 09:33N 01°13' E 103°52'3 2.9
2015-Feb-27 08:27N 01°16' E 103°52'0 0.1
2015-Feb-27 07:27N 01°16' E 103°52'1 0.1
2015-Feb-26 23:19N 01°15' E 103°52'5 6.9
2015-Feb-26 22:31N 01°10' E 103°49'8513.2
2015-Feb-26 16:05N 01°44' E 102°31'814.6
2015-Feb-26 15:33N 01°48' E 102°24'  
2015-Feb-22 10:05N 01°10' E 103°47'611.2
2015-Feb-22 09:31N 01°14' E 103°52'2 0.5
2015-Feb-22 05:04N 01°16' E 103°52'0 0.0
2015-Feb-22 01:25N 01°16' E 103°52'0 0.0
2015-Feb-21 23:32N 01°16' E 103°52'8 7.7
2015-Feb-21 22:33N 01°10' E 103°47'6214.1
2015-Feb-21 18:06N 01°36' E 102°51'1615.6
2015-Feb-21 17:04N 01°42' E 102°36'815.7
2015-Feb-21 16:34N 01°46' E 102°29'  
2015-Feb-18 10:26N 01°13' E 103°52'3 2.4
2015-Feb-18 09:06N 01°16' E 103°52'0 0.0
2015-Feb-18 04:30N 01°16' E 103°52'0 0.0
2015-Feb-18 03:29N 01°16' E 103°52'0 0.0
2015-Feb-18 02:18N 01°16' E 103°52'0 0.0
2015-Feb-18 01:15N 01°16' E 103°52'0 0.0
2015-Feb-18 00:30N 01°16' E 103°52'1 0.6
2015-Feb-17 23:34N 01°15' E 103°52'9 8.5
2015-Feb-17 22:33N 01°16' E 104°00'  

Dump ship's entire track history